• Join FlightAware (Why Join?)
  • Login
  • US Flag 
04:45PM EDT


 

Airport Tracker/Info


-or-


 

Live Flight TrackerFlight Track Log ✈ N885WT ✈ 17-Sep-2013 ✈ KIAD - KCRQ

Flight Track Log - Related Links

Times and Time Zones

All times are in EDT time to prevent confusion due to time zone crossing. See the N885WT flight status page for this flight to view local times or setup timezone preferences in your user account.

Time Position Orientation Groundspeed Altitude Reporting Facility
EDT Latitude Longitude Course Direction KTS MPH feet Rate Location/Type
06:11PM 38.9500 -77.5167 243° Southwest 191 220 2,700  Level Potomac TRACON
06:12PM 38.9167 -77.6000 243° Southwest 262 302 5,700 3,600 Climbing Potomac TRACON
06:13PM 38.9000 -77.7000 258° West 285 328 10,000 4,140 Climbing Potomac TRACON
06:14PM 38.8500 -77.7833 232° Southwest 300 345 14,000 3,360 Climbing Potomac TRACON
06:16PM 38.8000 -77.8797 236° Southwest 319 367 16,900 1,440 Climbing Washington Center
06:17PM 38.8000 -77.9889 270° West 301 346 17,000 480 Climbing Washington Center
06:18PM 38.8306 -78.1153 287° West 331 381 17,900 1,680 Climbing Washington Center
06:19PM 38.8531 -78.2414 283° West 344 396 20,500 2,700 Climbing Washington Center
06:20PM 38.8519 -78.3800 269° West 362 417 23,400 2,820 Climbing Washington Center
06:21PM 38.8506 -78.5239 269° West 393 452 26,200 2,460 Climbing Washington Center
06:22PM 38.8489 -78.6703 269° West 406 467 28,500 2,700 Climbing Washington Center
06:23PM 38.8450 -78.8194 268° West 417 480 31,600 3,000 Climbing Washington Center
06:24PM 38.8433 -78.9633 269° West 417 480 34,500 2,040 Climbing Washington Center
06:25PM 38.8411 -79.1072 269° West 417 480 35,800 1,500 Climbing Washington Center
06:26PM 38.8389 -79.2536 269° West 417 480 37,600 1,740 Climbing Washington Center
06:27PM 38.8364 -79.3975 269° West 417 480 39,400 1,380 Climbing Washington Center
06:28PM 38.8339 -79.5467 269° West 417 480 40,400 900 Climbing Washington Center
06:29PM 38.8333 -79.6878 270° West 431 496 41,300 840 Climbing Washington Center
06:30PM 38.8297 -79.8447 268° West 439 505 42,200 900 Climbing Washington Center
06:30PM 38.8225 -79.9789 266° West 444 511 43,000 420 Climbing Indianapolis Center
06:31PM 38.8189 -80.1422 268° West 457 526 43,000  Level Indianapolis Center
06:32PM 38.8142 -80.3061 268° West 460 529 43,000  Level Indianapolis Center
06:33PM 38.8103 -80.4672 268° West 453 521 43,000  Level Indianapolis Center
06:34PM 38.8058 -80.6292 268° West 454 522 43,000  Level Indianapolis Center
06:35PM 38.7989 -80.8236 267° West 456 525 43,000  Level Indianapolis Center
06:37PM 38.7939 -80.9853 268° West 455 524 43,000  Level Indianapolis Center
06:38PM 38.7886 -81.1475 268° West 455 524 43,000  Level Indianapolis Center
06:39PM 38.7833 -81.3067 268° West 453 521 43,000  Level Indianapolis Center
06:40PM 38.7761 -81.4683 267° West 453 521 43,000  Level Indianapolis Center
06:41PM 38.7697 -81.6603 268° West 460 529 43,000  Level Indianapolis Center
06:42PM 38.7639 -81.8169 267° West 458 527 43,000  Level Indianapolis Center
06:43PM 38.7575 -81.9742 267° West 446 513 43,000  Level Indianapolis Center
06:44PM 38.7511 -82.1336 267° West 448 516 43,000  Level Indianapolis Center
06:45PM 38.7447 -82.2944 267° West 453 521 43,000  Level Indianapolis Center
06:46PM 38.7372 -82.4872 267° West 453 521 43,000  Level Indianapolis Center
06:47PM 38.7311 -82.6475 267° West 451 519 43,000  Level Indianapolis Center
06:48PM 38.7236 -82.8064 267° West 449 517 43,000  Level Indianapolis Center
06:49PM 38.7169 -82.9650 267° West 447 514 43,000  Level Indianapolis Center
06:50PM 38.7100 -83.1219 267° West 442 509 43,000  Level Indianapolis Center
06:51PM 38.7008 -83.3067 266° West 443 510 43,000  Level Indianapolis Center
06:52PM 38.6936 -83.4633 267° West 447 514 43,000  Level Indianapolis Center
06:53PM 38.6853 -83.6211 266° West 445 512 43,000  Level Indianapolis Center
06:54PM 38.6769 -83.7806 266° West 448 516 43,000  Level Indianapolis Center
06:55PM 38.6686 -83.9369 266° West 444 511 43,000  Level Indianapolis Center
06:56PM 38.6606 -84.0939 266° West 444 511 43,000  Level Indianapolis Center
06:57PM 38.6514 -84.2839 267° West 447 514 43,000  Level Indianapolis Center
06:58PM 38.6567 -84.4403 273° West 442 509 43,000  Level Indianapolis Center
06:59PM 38.6667 -84.5989 275° West 443 510 43,000  Level Indianapolis Center
07:00PM 38.6750 -84.7561 274° West 444 511 43,000  Level Indianapolis Center
07:01PM 38.6842 -84.9131 274° West 444 511 43,000  Level Indianapolis Center
07:02PM 38.6928 -85.0706 274° West 445 512 43,000  Level Indianapolis Center
07:03PM 38.7014 -85.2272 274° West 443 510 43,000  Level Indianapolis Center
07:04PM 38.7111 -85.4172 274° West 446 513 43,000  Level Indianapolis Center
07:05PM 38.7189 -85.5747 274° West 445 512 43,000  Level Indianapolis Center
07:07PM 38.7272 -85.7333 274° West 446 513 43,000  Level Indianapolis Center
07:08PM 38.7347 -85.8900 274° West 443 510 43,000  Level Indianapolis Center
07:09PM 38.7411 -86.0408 273° West 443 510 43,000  Level Indianapolis Center
07:10PM 38.7506 -86.2303 274° West 444 511 43,000  Level Indianapolis Center
07:11PM 38.7572 -86.3867 273° West 442 509 43,000  Level Indianapolis Center
07:12PM 38.7639 -86.5431 273° West 441 507 43,000  Level Indianapolis Center
07:13PM 38.7694 -86.6997 273° West 441 507 43,000  Level Indianapolis Center
07:14PM 38.7758 -86.8572 273° West 444 511 43,000  Level Indianapolis Center
07:15PM 38.7825 -87.0142 273° West 444 511 43,000  Level Indianapolis Center
07:16PM 38.7892 -87.2033 273° West 445 512 43,000  Level Indianapolis Center
07:17PM 38.7950 -87.3608 273° West 446 513 43,000  Level Indianapolis Center
07:18PM 38.7992 -87.5167 272° West 442 509 43,000  Level Indianapolis Center
07:19PM 38.8058 -87.6733 273° West 441 507 43,000  Level Indianapolis Center
07:20PM 38.8092 -87.8314 272° West 443 510 43,000  Level Indianapolis Center
07:21PM 38.8142 -87.9883 272° West 441 507 43,000  Level Indianapolis Center
07:22PM 38.8203 -88.1800 272° West 444 511 43,000  Level Kansas City Center
07:23PM 38.8225 -88.3375 271° West 442 509 43,000  Level Kansas City Center
07:24PM 38.8272 -88.4950 272° West 442 509 43,000  Level Kansas City Center
07:25PM 38.8331 -88.6739 272° West 445 512 43,000  Level Kansas City Center
07:26PM 38.8364 -88.8311 272° West 444 511 43,000  Level Kansas City Center
07:27PM 38.8394 -88.9981 271° West 442 509 43,000  Level Kansas City Center
07:28PM 38.8439 -89.1683 272° West 445 512 43,000  Level Kansas City Center
07:29PM 38.8464 -89.3278 271° West 448 516 43,000  Level Kansas City Center
07:30PM 38.8494 -89.4967 271° West 443 510 43,000  Level Kansas City Center
07:31PM 38.8528 -89.6550 272° West 438 504 43,000  Level Kansas City Center
07:32PM 38.8539 -89.8050 271° West 438 504 43,000  Level Kansas City Center
07:33PM 38.8572 -89.9619 272° West 442 509 43,000  Level Kansas City Center
07:34PM 38.8600 -90.1461 271° West 442 509 43,000  Level Kansas City Center
07:36PM 38.8625 -90.3039 271° West 443 510 43,000  Level Kansas City Center
07:37PM 38.8608 -90.4608 269° West 442 509 43,000  Level Kansas City Center
07:38PM 38.8458 -90.6211 263° West 454 522 43,000  Level Kansas City Center
07:39PM 38.8247 -90.7692 260° West 446 513 43,000  Level Kansas City Center
07:40PM 38.8047 -90.9222 261° West 443 510 43,000  Level Kansas City Center
07:41PM 38.7808 -91.1047 261° West 438 504 43,000  Level Kansas City Center
07:42PM 38.7611 -91.2578 261° West 439 505 43,000  Level Kansas City Center
07:43PM 38.7397 -91.4128 260° West 442 509 43,000  Level Kansas City Center
07:44PM 38.7186 -91.5667 260° West 442 509 43,000  Level Kansas City Center
07:45PM 38.6961 -91.7311 260° West 439 505 43,000  Level Kansas City Center
07:46PM 38.6733 -91.8828 259° West 436 502 43,000  Level Kansas City Center
07:47PM 38.6508 -92.0356 259° West 438 504 43,000  Level Kansas City Center
07:48PM 38.6253 -92.2167 260° West 434 499 43,000  Level Kansas City Center
07:49PM 38.6031 -92.3678 259° West 435 501 43,000  Level Kansas City Center
07:50PM 38.5797 -92.5164 259° West 431 496 43,000  Level Kansas City Center
07:51PM 38.5581 -92.6678 260° West 431 496 43,000  Level Kansas City Center
07:52PM 38.5347 -92.8203 259° West 436 502 43,000  Level Kansas City Center
07:53PM 38.5122 -92.9714 259° West 437 503 43,000  Level Kansas City Center
07:54PM 38.4839 -93.1564 259° West 442 509 43,000  Level Kansas City Center
07:55PM 38.4597 -93.3094 259° West 442 509 43,000  Level Kansas City Center
07:56PM 38.4364 -93.4625 259° West 441 507 43,000  Level Kansas City Center
07:57PM 38.4122 -93.6144 259° West 439 505 43,000  Level Kansas City Center
07:58PM 38.3886 -93.7675 259° West 439 505 43,000  Level Kansas City Center
07:59PM 38.3642 -93.9192 258° West 439 505 43,000  Level Kansas City Center
08:00PM 38.3394 -94.0686 258° West 433 498 43,000  Level Kansas City Center
08:01PM 38.3122 -94.2442 259° West 433 498 43,000  Level Kansas City Center
08:02PM 38.2881 -94.3894 258° West 433 498 43,000  Level Kansas City Center
08:03PM 38.2611 -94.5583 259° West 434 499 43,000  Level Kansas City Center
08:04PM 38.2381 -94.7033 259° West 436 502 43,000  Level Kansas City Center
08:05PM 38.2114 -94.8717 259° West 435 501 43,000  Level Kansas City Center
08:07PM 38.1881 -95.0183 259° West 437 503 43,000  Level Kansas City Center
08:08PM 38.1642 -95.1681 259° West 446 513 43,000  Level Kansas City Center
08:09PM 38.1350 -95.3372 258° West 440 506 43,000  Level Kansas City Center
08:10PM 38.1100 -95.4825 258° West 438 504 43,000  Level Kansas City Center
08:11PM 38.0808 -95.6517 258° West 438 504 43,000  Level Kansas City Center
08:12PM 38.0561 -95.7936 258° West 433 498 43,000  Level Kansas City Center
08:13PM 38.0267 -95.9633 258° West 438 504 43,000  Level Kansas City Center
08:14PM 38.0008 -96.1214 258° West 441 507 43,000  Level Kansas City Center
08:15PM 37.9761 -96.2739 258° West 442 509 43,000  Level Kansas City Center
08:16PM 37.9514 -96.4233 258° West 436 502 43,000  Level Kansas City Center
08:17PM 37.9261 -96.5728 258° West 434 499 43,000  Level Kansas City Center
08:18PM 37.9008 -96.7231 258° West 436 502 43,000  Level Kansas City Center
08:19PM 37.8753 -96.8725 258° West 436 502 43,000  Level Kansas City Center
08:20PM 37.8481 -97.0219 257° West 436 502 43,000  Level Kansas City Center
08:21PM 37.8150 -97.1997 257° West 434 499 43,000  Level Kansas City Center
08:22PM 37.7886 -97.3492 257° West 434 499 43,000  Level Kansas City Center
08:23PM 37.7614 -97.4983 257° West 433 498 43,000  Level Kansas City Center
08:24PM 37.7342 -97.6481 257° West 434 499 43,000  Level Kansas City Center
08:25PM 37.7047 -97.7964 256° West 437 503 43,000  Level Kansas City Center
08:26PM 37.6756 -97.9469 256° West 438 504 43,000  Level Kansas City Center
08:27PM 37.6469 -98.0978 257° West 440 506 43,000  Level Kansas City Center
08:28PM 37.6158 -98.2547 256° West 440 506 43,000  Level Kansas City Center
08:29PM 37.5861 -98.4053 256° West 441 507 43,000  Level Kansas City Center
08:30PM 37.5564 -98.5547 256° West 440 506 43,000  Level Kansas City Center
08:31PM 37.5208 -98.7333 256° West 438 504 43,000  Level Kansas City Center
08:32PM 37.4903 -98.8822 256° West 439 505 43,000  Level Kansas City Center
08:33PM 37.4603 -99.0311 256° West 438 504 43,000  Level Kansas City Center
08:34PM 37.4278 -99.1781 254° West 437 503 43,000  Level Kansas City Center
08:35PM 37.3969 -99.3267 255° West 439 505 43,000  Level Kansas City Center
08:36PM 37.3650 -99.4886 256° West 439 505 43,000  Level Kansas City Center
08:37PM 37.3356 -99.6306 255° West 438 504 43,000  Level Kansas City Center
08:38PM 37.3000 -99.7964 255° West 439 505 43,000  Level Kansas City Center
08:40PM 37.2700 -99.9375 255° West 438 504 43,000  Level Kansas City Center
08:41PM 37.2342 -100.1039 255° West 440 506 43,000  Level Kansas City Center
08:42PM 37.2036 -100.2444 255° West 439 505 43,000  Level Kansas City Center
08:43PM 37.1681 -100.4086 255° West 436 502 43,000  Level Kansas City Center
08:44PM 37.1372 -100.5503 255° West 437 503 43,000  Level Kansas City Center
08:45PM 37.1067 -100.6897 255° West 434 499 43,000  Level Kansas City Center
08:46PM 37.0708 -100.8511 254° West 430 495 43,000  Level Kansas City Center
08:47PM 37.0411 -100.9897 255° West 430 495 43,000  Level Kansas City Center
08:48PM 37.0206 -101.1556 261° West 430 495 43,000  Level Kansas City Center
08:49PM 37.0022 -101.2994 261° West 434 499 43,000  Level Kansas City Center
08:50PM 36.9847 -101.4408 261° West 432 497 43,000  Level Kansas City Center
08:51PM 36.9633 -101.6053 261° West 429 494 43,000  Level Kansas City Center
08:52PM 36.9447 -101.7453 261° West 428 493 43,000  Level Kansas City Center
08:53PM 36.9231 -101.9117 261° West 431 496 43,000  Level Kansas City Center
08:54PM 36.9042 -102.0539 261° West 434 499 43,000  Level Kansas City Center
08:55PM 36.8819 -102.2200 261° West 432 497 43,000  Level Albuquerque Center
08:56PM 36.8608 -102.3719 260° West 431 496 43,000  Level Albuquerque Center
08:57PM 36.8403 -102.5186 260° West 432 497 43,000  Level Albuquerque Center
08:58PM 36.8203 -102.6725 261° West 429 494 43,000  Level Albuquerque Center
08:59PM 36.8006 -102.8122 260° West 426 490 43,000  Level Albuquerque Center
09:00PM 36.7811 -102.9525 260° West 428 493 43,000  Level Albuquerque Center
09:01PM 36.7569 -103.1158 260° West 428 493 43,000  Level Albuquerque Center
09:02PM 36.7378 -103.2569 260° West 430 495 43,000  Level Albuquerque Center
09:03PM 36.7164 -103.3994 259° West 434 499 43,000  Level Albuquerque Center
09:04PM 36.6925 -103.5636 260° West 432 497 43,000  Level Albuquerque Center
09:05PM 36.6711 -103.7044 259° West 431 496 43,000  Level Albuquerque Center
09:06PM 36.6472 -103.8633 259° West 429 494 43,000  Level Albuquerque Center
09:07PM 36.6253 -104.0097 259° West 429 494 43,000  Level Albuquerque Center
09:08PM 36.6042 -104.1539 260° West 424 488 43,000  Level Albuquerque Center
09:09PM 36.5814 -104.3000 259° West 426 490 43,000  Level Albuquerque Center
09:10PM 36.5586 -104.4461 259° West 428 493 43,000  Level Albuquerque Center
09:11PM 36.5364 -104.5897 259° West 424 488 43,000  Level Albuquerque Center
09:12PM 36.5136 -104.7339 259° West 424 488 43,000  Level Albuquerque Center
09:13PM 36.4900 -104.8783 259° West 425 489 43,000  Level Albuquerque Center
09:14PM 36.4578 -105.0181 254° West 421 484 43,000  Level Albuquerque Center
09:15PM 36.4192 -105.1792 253° West 417 480 43,000  Level Albuquerque Center
09:16PM 36.3839 -105.3214 253° West 424 488 43,000  Level Albuquerque Center
09:17PM 36.3517 -105.4603 254° West 420 483 43,000  Level Albuquerque Center
09:18PM 36.3183 -105.6003 254° West 419 482 43,000  Level Albuquerque Center
09:20PM 36.2858 -105.7394 254° West 420 483 43,000  Level Albuquerque Center
09:21PM 36.2522 -105.8772 253° West 420 483 43,000  Level Albuquerque Center
09:22PM 36.2183 -106.0128 253° West 416 479 43,000  Level Albuquerque Center
09:23PM 36.1856 -106.1503 254° West 418 481 43,000  Level Albuquerque Center
09:24PM 36.1514 -106.2886 253° West 421 484 43,000  Level Albuquerque Center
09:25PM 36.1167 -106.4264 253° West 423 487 43,000  Level Albuquerque Center
09:26PM 36.0750 -106.5894 252° West 415 478 43,000  Level Albuquerque Center
09:27PM 36.0422 -106.7203 253° West 415 478 43,000  Level Albuquerque Center
09:28PM 36.0089 -106.8517 253° West 418 481 43,000  Level Albuquerque Center
09:29PM 35.9714 -107.0017 253° West 413 475 43,000  Level Albuquerque Center
09:30PM 35.9383 -107.1314 253° West 413 475 43,000  Level Albuquerque Center
09:31PM 35.9047 -107.2633 253° West 418 481 43,000  Level Albuquerque Center
09:32PM 35.8658 -107.4161 253° West 417 480 43,000  Level Albuquerque Center
09:33PM 35.8314 -107.5469 252° West 418 481 43,000  Level Albuquerque Center
09:34PM 35.7931 -107.6972 253° West 414 476 43,000  Level Albuquerque Center
09:35PM 35.7586 -107.8258 252° West 412 474 43,000  Level Albuquerque Center
09:36PM 35.7233 -107.9592 252° West 421 484 43,000  Level Albuquerque Center
09:37PM 35.6828 -108.1097 252° West 419 482 43,000  Level Albuquerque Center
09:38PM 35.6492 -108.2375 252° West 413 475 43,000  Level Albuquerque Center
09:39PM 35.6142 -108.3675 252° West 414 476 43,000  Level Albuquerque Center
09:40PM 35.5725 -108.5181 251° West 415 478 43,000  Level Albuquerque Center
09:41PM 35.5378 -108.6458 252° West 411 473 43,000  Level Albuquerque Center
09:42PM 35.5028 -108.7744 252° West 412 474 43,000  Level Albuquerque Center
09:43PM 35.4681 -108.9264 254° West 412 474 43,000  Level Albuquerque Center
09:44PM 35.4392 -109.0561 255° West 412 474 43,000  Level Albuquerque Center
09:45PM 35.4067 -109.2103 256° West 415 478 43,000  Level Albuquerque Center
09:46PM 35.3783 -109.3392 255° West 412 474 43,000  Level Albuquerque Center
09:47PM 35.3481 -109.4689 254° West 411 473 43,000  Level Albuquerque Center
09:48PM 35.3136 -109.6183 254° West 408 470 43,000  Level Albuquerque Center
09:49PM 35.2839 -109.7492 254° West 412 474 43,000  Level Albuquerque Center
09:50PM 35.2553 -109.8817 255° West 419 482 43,000  Level Albuquerque Center
09:51PM 35.2203 -110.0317 254° West 413 475 43,000  Level Albuquerque Center
09:52PM 35.1903 -110.1586 254° West 409 471 43,000  Level Albuquerque Center
09:53PM 35.1544 -110.3083 254° West 409 471 43,000  Level Albuquerque Center
09:54PM 35.1239 -110.4356 254° West 409 471 43,000  Level Albuquerque Center
09:55PM 35.0925 -110.5625 253° West 409 471 43,000  Level Albuquerque Center
09:56PM 35.0578 -110.7119 254° West 409 471 43,000  Level Albuquerque Center
09:57PM 35.0297 -110.8272 253° West 410 472 43,000  Level Albuquerque Center
09:58PM 34.9983 -110.9614 254° West 411 473 43,000  Level Albuquerque Center
09:59PM 34.9700 -111.0964 256° West 412 474 43,000  Level Albuquerque Center
10:00PM 34.9297 -111.2575 253° West 416 479 43,000  Level Albuquerque Center
10:01PM 34.8978 -111.3900 254° West 411 473 43,000  Level Albuquerque Center
10:02PM 34.8656 -111.5203 253° West 407 468 43,000  Level Albuquerque Center
10:03PM 34.8342 -111.6506 254° West 404 465 43,000  Level Albuquerque Center
10:04PM 34.8047 -111.7706 253° West 405 466 43,000  Level Albuquerque Center
10:05PM 34.7653 -111.9289 253° West 409 471 43,000  Level Albuquerque Center
10:06PM 34.7369 -112.0456 254° West 410 472 43,000  Level Albuquerque Center
10:07PM 34.7039 -112.1767 253° West 409 471 43,000  Level Albuquerque Center
10:08PM 34.6642 -112.3339 253° West 408 470 43,000  Level Albuquerque Center
10:09PM 34.6339 -112.4550 253° West 407 468 43,000  Level Albuquerque Center
10:11PM 34.6011 -112.5853 253° West 406 467 43,000  Level Albuquerque Center
10:12PM 34.5669 -112.7172 253° West 408 470 43,000  Level Albuquerque Center
10:13PM 34.5333 -112.8494 253° West 410 472 43,000  Level Albuquerque Center
10:14PM 34.4994 -112.9800 253° West 409 471 43,000  Level Albuquerque Center
10:15PM 34.4583 -113.1383 253° West 410 472 43,000 -120 Level Albuquerque Center
10:16PM 34.4283 -113.2503 252° West 411 473 42,800 -1,080 Descending Albuquerque Center
10:17PM 34.3947 -113.3806 253° West 408 470 40,800 -2,280 Descending Albuquerque Center
10:18PM 34.3542 -113.5378 253° West 409 471 38,100 -2,400 Descending Albuquerque Center
10:19PM 34.3194 -113.6631 251° West 425 489 36,000 -2,280 Descending Albuquerque Center
10:20PM 34.2811 -113.8094 252° West 447 514 33,600 -1,500 Descending Albuquerque Center
10:21PM 34.2403 -113.9581 252° West 458 527 33,000 -540 Descending Albuquerque Center
10:22PM 34.2011 -114.1067 252° West 462 532 32,600 -900 Descending Albuquerque Center
10:23PM 34.1539 -114.2858 252° West 465 535 31,200 -1,320 Descending Albuquerque Center
10:24PM 34.1114 -114.4378 251° West 471 542 30,000 -1,140 Descending Albuquerque Center
10:25PM 34.0747 -114.5742 252° West 467 537 28,900 -960 Descending Albuquerque Center
10:26PM 34.0286 -114.7469 252° West 463 533 27,700 -1,080 Descending Los Angeles Center
10:27PM 33.9725 -114.9469 251° West 453 521 26,300 -1,200 Descending Los Angeles Center
10:28PM 33.9350 -115.0878 252° West 444 511 25,300 -960 Descending Los Angeles Center
10:29PM 33.8950 -115.2272 251° West 443 510 24,400 -900 Descending Los Angeles Center
10:30PM 33.8553 -115.3639 251° West 434 499 23,500 -840 Descending Los Angeles Center
10:31PM 33.8172 -115.5031 252° West 438 504 22,700 -900 Descending Los Angeles Center
10:32PM 33.7781 -115.6375 251° West 431 496 21,700 -1,020 Descending Los Angeles Center
10:33PM 33.7403 -115.7708 251° West 424 488 20,700 -1,200 Descending Los Angeles Center
10:34PM 33.6964 -115.9275 251° West 415 478 19,300 -1,500 Descending Los Angeles Center
10:35PM 33.6594 -116.0553 251° West 409 471 17,700 -1,380 Descending Los Angeles Center
10:36PM 33.6194 -116.1719 248° West 383 441 16,500 -1,140 Descending Los Angeles Center
10:38PM 33.5617 -116.2561 231° Southwest 331 381 15,400 -1,080 Descending Los Angeles Center
10:39PM 33.5044 -116.3369 230° Southwest 323 372 14,300 -780 Descending Los Angeles Center
10:40PM 33.4469 -116.4203 230° Southwest 325 374 13,900 -540 Descending Los Angeles Center
10:41PM 33.3842 -116.5106 230° Southwest 304 350 13,300 -840 Descending Los Angeles Center
10:42PM 33.3350 -116.5803 230° Southwest 282 325 12,200 -1,080 Descending Los Angeles Center
10:43PM 33.2942 -116.6556 237° Southwest 274 315 11,100 -1,260 Descending Los Angeles Center
10:44PM 33.2622 -116.7319 243° Southwest 262 302 9,700 -1,380 Descending Los Angeles Center
10:45PM 33.2308 -116.8103 244° Southwest 261 300 8,300 -1,380 Descending Los Angeles Center
10:46PM 33.2006 -116.8894 245° Southwest 264 304 6,900 -1,500 Descending Los Angeles Center
10:47PM 33.1664 -116.9831 246° West 259 298 5,300 -1,320 Descending Los Angeles Center
10:48PM 33.1458 -117.0589 252° West 253 291 4,300 -1,200 Descending Los Angeles Center
10:49PM 33.1467 -117.1336 271° West 237 273 2,900 -1,200 Descending Los Angeles Center
10:50PM 33.1433 -117.1883 266° West 195 224 1,900 -840 Descending Los Angeles Center
10:51PM 33.1361 -117.2303 258° West 156 180 1,200 -720 Descending Los Angeles Center
10:52PM 33.1294 -117.2683 258° West 135 155 500 -720 Descending Los Angeles Center
10:54PM 33.1167 -117.2667 257° West  Level FlightAware Approximate
11:01PM 33.1283 -117.2801 257° West  Level Estimated
11:02PM 33.1283 -117.2801 257° West  Level Estimated
11:03PM 33.1283 -117.2801 257° West  Level Estimated
11:04PM 33.1283 -117.2801 257° West  Level Estimated
11:05PM 33.1283 -117.2801 257° West  Level Estimated